Terminal Aerodrome Forecast
Issued by NWS Cleveland, OH

Home | Current Version | Previous Version | Graphics & Text | Print | Product List | Glossary On
Versions: 1 2 3 4 5 6 7 8 9 10 11 12 13 14 15 16 17
000
FTUS41 KCLE 240529
TAFTOL
TAF
KTOL 240529Z 2406/2506 00000KT P6SM SCT120 OVC200
      TEMPO 2409/2413 4SM BR
     FM241400 24008KT P6SM SCT035 BKN120 OVC200
     FM242100 24010KT P6SM SCT050 BKN200
     FM250500 21006KT P6SM VCTS BKN050CB OVC120=

USA.gov is the U.S. government's official web portal to all federal, state and local government web resources and services.